Station Historical Data
Daily Summary for May 31, 2017 Units:  Metric    English   Both
« Previous Day
Next Day »
Daily Weekly Monthly Yearly Custom
  High: Low: Average:
Temperature: 27.8 °C 18.3 °C 21.7 °C
Dew Point: 20.4 °C 16.1 °C 18.3 °C
Humidity: 95% 52% 83%
Wind Speed: 1.6km/h 0km/h 0km/h
Wind Gust: 8km/h - -
Wind- - SSW
Pressure: 1020.9 hPa 1017.5 hPa -
Precipitation: 0 mm    
Historical Graphs
 
 
Tabular Data for May 31, 2017
Time Temperature Dew Point Pressure Wind Wind Speed Wind Gust Humidity Rainfall Rate (Hourly) Conditions
00:00 18.7 °C 17.5 °C 1019.9 hPa Calm     93% 0 mm RA
00:10 18.7 °C 17.5 °C 1019.9 hPa Calm     93% 0 mm SCT
00:20 18.7 °C 17.5 °C 1019.9 hPa Calm     93% 0 mm SCT
00:30 18.8 °C 17.6 °C 1019.9 hPa Calm     93% 0 mm SCT
00:40 18.8 °C 17.6 °C 1019.9 hPa Calm     93% 0 mm SCT
00:50 18.8 °C 17.7 °C 1020.2 hPa Calm     93% 0 mm SCT
01:00 18.8 °C 17.7 °C 1020.2 hPa Calm     93% 0 mm SCT
01:10 18.8 °C 17.7 °C 1020.2 hPa Calm     93% 0 mm SCT
01:20 18.3 °C 17.5 °C 1020.5 hPa Calm     95% 0 mm SCT
01:30 18.3 °C 17.5 °C 1020.5 hPa Calm     95% 0 mm SCT
01:40 18.3 °C 17.5 °C 1020.5 hPa Calm     95% 0 mm SCT
01:50 18.3 °C 17.5 °C 1020.5 hPa Calm     95% 0 mm SCT
02:00 18.3 °C 17.5 °C 1020.5 hPa Calm     95% 0 mm SCT
02:10 18.3 °C 17.5 °C 1020.2 hPa Calm     95% 0 mm SCT
02:20 18.3 °C 17.5 °C 1019.9 hPa Calm     95% 0 mm SCT
02:30 18.3 °C 17.5 °C 1020.2 hPa Calm     95% 0 mm SCT
02:40 18.3 °C 17.5 °C 1020.2 hPa Calm     95% 0 mm SCT
02:50 18.3 °C 17.5 °C 1019.9 hPa Calm     95% 0 mm SCT
03:00 18.3 °C 17.5 °C 1019.9 hPa Calm     95% 0 mm SCT
03:10 18.3 °C 17.5 °C 1019.5 hPa Calm     95% 0 mm SCT
03:20 18.3 °C 17.5 °C 1019.9 hPa Calm     95% 0 mm SCT
03:30 18.3 °C 17.5 °C 1019.9 hPa Calm     95% 0 mm SCT
03:40 18.3 °C 17.5 °C 1019.9 hPa Calm     95% 0 mm SCT
03:50 18.3 °C 17.5 °C 1019.9 hPa Calm     95% 0 mm SCT
04:00 18.3 °C 17.5 °C 1019.9 hPa Calm     95% 0 mm SCT
04:10 18.3 °C 17.5 °C 1019.9 hPa Calm     95% 0 mm SCT
04:20 18.3 °C 17.5 °C 1019.9 hPa Calm     95% 0 mm SCT
04:30 18.3 °C 17.5 °C 1019.5 hPa Calm     95% 0 mm SCT
04:40 18.3 °C 17.5 °C 1019.5 hPa Calm     95% 0 mm SCT
04:50 18.3 °C 17.5 °C 1019.5 hPa Calm     95% 0 mm SCT
05:00 18.3 °C 17.5 °C 1019.2 hPa Calm     95% 0 mm SCT
05:10 18.3 °C 17.5 °C 1018.8 hPa Calm     95% 0 mm SCT
05:20 18.3 °C 17.5 °C 1018.8 hPa Calm     95% 0 mm SCT
05:30 18.3 °C 17.5 °C 1019.2 hPa Calm     95% 0 mm SCT
05:40 18.3 °C 17.5 °C 1019.5 hPa Calm     95% 0 mm SCT
05:50 18.3 °C 17.5 °C 1019.5 hPa Calm     95% 0 mm SCT
06:00 18.3 °C 17.5 °C 1019.9 hPa Calm     95% 0 mm SCT
06:20 18.3 °C 17.5 °C 1019.9 hPa Calm     95% 0 mm SCT
06:30 18.3 °C 17.5 °C 1020.2 hPa Calm     95% 0 mm SCT
06:40 18.3 °C 17.5 °C 1020.2 hPa Calm     95% 0 mm SCT
06:50 18.3 °C 17.5 °C 1020.2 hPa Calm     95% 0 mm SCT
07:00 18.3 °C 17.5 °C 1020.2 hPa Calm     95% 0 mm SCT
07:10 18.3 °C 17.5 °C 1020.2 hPa Calm     95% 0 mm SCT
07:20 18.3 °C 17.5 °C 1020.2 hPa Calm     95% 0 mm SCT
07:30 18.3 °C 17.5 °C 1020.2 hPa Calm     95% 0 mm SCT
07:40 18.3 °C 17.5 °C 1020.5 hPa Calm     95% 0 mm SCT
07:50 18.3 °C 17.5 °C 1020.5 hPa Calm     95% 0 mm SCT
08:00 18.3 °C 17.5 °C 1020.5 hPa Calm     95% 0 mm SCT
08:10 18.3 °C 17.5 °C 1020.9 hPa Calm     95% 0 mm SCT
08:20 18.3 °C 17.5 °C 1020.9 hPa Calm     95% 0 mm SCT
08:30 18.3 °C 17.5 °C 1020.9 hPa Calm     95% 0 mm SCT
08:40 18.3 °C 17.5 °C 1020.9 hPa Calm     95% 0 mm SCT
08:50 19.5 °C 18.5 °C 1020.9 hPa Calm     94% 0 mm SCT
09:00 19.6 °C 18.6 °C 1020.9 hPa Calm     94% 0 mm SCT
09:10 19.7 °C 18.7 °C 1020.5 hPa Calm     94% 0 mm SCT
09:20 19.7 °C 18.7 °C 1020.5 hPa Calm   1.6 km/h 94% 0 mm SCT
09:30 19.8 °C 18.8 °C 1020.9 hPa Calm     94% 0 mm SCT
09:40 20.1 °C 19.1 °C 1020.5 hPa Calm   1.6 km/h 94% 0 mm SCT
09:50 20.2 °C 19.2 °C 1020.5 hPa Calm     94% 0 mm SCT
10:00 20.2 °C 19.2 °C 1020.5 hPa Calm     94% 0 mm SCT
10:10 20.3 °C 19.3 °C 1020.5 hPa Calm     94% 0 mm SCT
10:20 20.5 °C 19.5 °C 1020.5 hPa Calm     94% 0 mm SCT
10:30 20.6 °C 19.6 °C 1020.5 hPa Calm   1.6 km/h 94% 0 mm SCT
10:40 20.7 °C 19.7 °C 1020.5 hPa Calm   1.6 km/h 94% 0 mm SCT
10:50 20.8 °C 19.8 °C 1020.5 hPa Calm     94% 0 mm SCT
11:00 20.9 °C 19.7 °C 1020.5 hPa Calm   3.2 km/h 93% 0 mm SCT
11:10 21.2 °C 19.8 °C 1020.5 hPa Calm   3.2 km/h 92% 0 mm SCT
11:20 21.6 °C 19.8 °C 1020.5 hPa Calm   3.2 km/h 90% 0 mm SCT
11:30 21.9 °C 20.1 °C 1020.5 hPa Calm   3.2 km/h 89% 0 mm SCT
11:40 22.4 °C 19.9 °C 1020.5 hPa Calm   4.8 km/h 86% 0 mm SCT
11:50 22.8 °C 20.1 °C 1020.5 hPa Calm   3.2 km/h 85% 0 mm SCT
12:00 23.1 °C 20 °C 1020.2 hPa Calm     83% 0 mm SCT
12:10 23.3 °C 20.1 °C 1020.5 hPa Calm     82% 0 mm SCT
12:20 23.6 °C 19.9 °C 1020.5 hPa Calm   3.2 km/h 80% 0 mm SCT
12:30 23.9 °C 20.2 °C 1020.2 hPa Calm   3.2 km/h 80% 0 mm SCT
12:40 24.1 °C 20.1 °C 1020.2 hPa Calm   8 km/h 78% 0 mm SCT
12:50 24.2 °C 19.9 °C 1020.2 hPa Calm   4.8 km/h 77% 0 mm SCT
13:00 24.4 °C 20.2 °C 1019.9 hPa WSW 1.6 km/h 3.2 km/h 77% 0 mm SCT
13:10 24.6 °C 19.9 °C 1019.9 hPa SW 1.6 km/h 3.2 km/h 75% 0 mm SCT
13:20 24.8 °C 19.7 °C 1019.9 hPa Calm   3.2 km/h 73% 0 mm SCT
13:30 24.8 °C 19 °C 1019.9 hPa West 1.6 km/h 3.2 km/h 70% 0 mm SCT
13:40 24.8 °C 19.9 °C 1019.9 hPa Calm   1.6 km/h 74% 0 mm SCT
13:50 25.1 °C 19.4 °C 1019.5 hPa Calm   3.2 km/h 71% 0 mm SCT
14:00 25.3 °C 19.4 °C 1019.5 hPa Calm   3.2 km/h 70% 0 mm SCT
14:10 25.7 °C 20.4 °C 1019.5 hPa Calm   1.6 km/h 73% 0 mm SCT
14:20 26.1 °C 20.4 °C 1019.2 hPa Calm   3.2 km/h 71% 0 mm SCT
14:30 25.9 °C 19.3 °C 1019.2 hPa Calm   1.6 km/h 67% 0 mm SCT
14:40 25.9 °C 19.1 °C 1019.2 hPa Calm   4.8 km/h 66% 0 mm SCT
14:50 26.1 °C 19 °C 1018.8 hPa Calm   8 km/h 65% 0 mm SCT
15:00 26.1 °C 18.7 °C 1018.8 hPa Calm   4.8 km/h 64% 0 mm SCT
15:10 26.2 °C 18.6 °C 1018.8 hPa Calm   3.2 km/h 63% 0 mm SCT
15:20 26.1 °C 18.3 °C 1018.8 hPa NE 1.6 km/h 3.2 km/h 62% 0 mm SCT
15:30 25.9 °C 19.3 °C 1018.8 hPa Calm   1.6 km/h 67% 0 mm SCT
15:40 26.2 °C 19.1 °C 1018.5 hPa Calm   8 km/h 65% 0 mm SCT
15:50 26.1 °C 19 °C 1018.5 hPa Calm   1.6 km/h 65% 0 mm SCT
16:00 26.2 °C 18.6 °C 1018.5 hPa Calm   3.2 km/h 63% 0 mm SCT
16:10 26.2 °C 18.1 °C 1018.5 hPa Calm   3.2 km/h 61% 0 mm SCT
16:20 26.5 °C 17.6 °C 1018.2 hPa Calm   3.2 km/h 58% 0 mm SCT
16:30 26.6 °C 18.2 °C 1018.2 hPa Calm   1.6 km/h 60% 0 mm SCT
16:40 26.8 °C 18.6 °C 1018.2 hPa Calm   1.6 km/h 61% 0 mm SCT
16:50 27.3 °C 17.5 °C 1017.8 hPa Calm   3.2 km/h 55% 0 mm SCT
17:00 27.3 °C 17.8 °C 1017.8 hPa Calm   1.6 km/h 56% 0 mm SCT
17:10 27.4 °C 17.6 °C 1017.8 hPa Calm   1.6 km/h 55% 0 mm SCT
17:20 27.8 °C 17.9 °C 1017.5 hPa Calm   1.6 km/h 55% 0 mm SCT
17:30 27.5 °C 17.9 °C 1017.5 hPa Calm   1.6 km/h 56% 0 mm SCT
17:50 26.9 °C 18.2 °C 1017.5 hPa Calm   1.6 km/h 59% 0 mm SCT
18:00 26.8 °C 17.8 °C 1017.5 hPa Calm   3.2 km/h 58% 0 mm SCT
18:10 26.7 °C 16.1 °C 1017.5 hPa Calm   1.6 km/h 52% 0 mm SCT
18:20 26.7 °C 18.3 °C 1017.5 hPa Calm   1.6 km/h 60% 0 mm SCT
18:30 26.3 °C 17.7 °C 1017.5 hPa Calm   1.6 km/h 59% 0 mm SCT
18:40 25.7 °C 18.4 °C 1017.5 hPa Calm   1.6 km/h 64% 0 mm SCT
18:50 25.4 °C 18.2 °C 1017.5 hPa Calm   1.6 km/h 64% 0 mm SCT
19:00 25.1 °C 18.2 °C 1017.5 hPa Calm   3.2 km/h 66% 0 mm SCT
19:10 24.6 °C 18.6 °C 1017.5 hPa Calm   1.6 km/h 69% 0 mm SCT
19:20 24.4 °C 18.3 °C 1017.5 hPa Calm   1.6 km/h 69% 0 mm SCT
19:30 24.3 °C 18.3 °C 1017.5 hPa Calm   1.6 km/h 69% 0 mm SCT
19:40 24.3 °C 18.7 °C 1017.5 hPa Calm     71% 0 mm SCT
19:50 24.1 °C 18.3 °C 1017.8 hPa Calm   1.6 km/h 70% 0 mm SCT
20:00 24 °C 18.7 °C 1017.8 hPa Calm   1.6 km/h 72% 0 mm SCT
20:10 23.8 °C 18.7 °C 1017.8 hPa Calm   1.6 km/h 73% 0 mm SCT
20:20 23.6 °C 18.7 °C 1018.2 hPa Calm     74% 0 mm SCT
20:30 23.3 °C 18.9 °C 1018.2 hPa Calm     76% 0 mm SCT
20:40 23.1 °C 18.7 °C 1018.2 hPa Calm     76% 0 mm SCT
20:50 22.8 °C 18.2 °C 1018.2 hPa Calm     75% 0 mm SCT
21:00 22.6 °C 17.9 °C 1018.2 hPa Calm     75% 0 mm SCT
21:10 22.3 °C 18.1 °C 1018.2 hPa Calm     77% 0 mm SCT
21:20 22.1 °C 18.1 °C 1018.5 hPa Calm     78% 0 mm SCT
21:30 21.9 °C 17.9 °C 1018.5 hPa Calm     78% 0 mm SCT
21:40 21.8 °C 18.2 °C 1018.5 hPa Calm     80% 0 mm SCT
21:50 21.5 °C 17.9 °C 1018.5 hPa Calm     80% 0 mm SCT
22:00 21.3 °C 17.9 °C 1018.5 hPa Calm     81% 0 mm SCT
22:10 21.2 °C 17.9 °C 1018.5 hPa Calm     82% 0 mm SCT
22:20 21.1 °C 17.9 °C 1018.8 hPa Calm     82% 0 mm SCT
22:30 21.1 °C 18.1 °C 1018.8 hPa Calm     83% 0 mm SCT
22:40 21.1 °C 18.3 °C 1019.2 hPa Calm     84% 0 mm SCT
22:50 21.2 °C 18.3 °C 1019.2 hPa Calm     84% 0 mm SCT
23:00 21.1 °C 18.3 °C 1019.2 hPa Calm     84% 0 mm SCT
23:10 21 °C 18.4 °C 1019.2 hPa Calm     85% 0 mm SCT
23:20 20.9 °C 18.3 °C 1019.2 hPa Calm     85% 0 mm SCT
23:30 20.8 °C 18.2 °C 1019.2 hPa Calm     85% 0 mm SCT
23:40 20.7 °C 18.3 °C 1019.2 hPa Calm     86% 0 mm SCT
23:50 20.7 °C 18.5 °C 1019.2 hPa Calm     87% 0 mm SCT
Piedmont Bend
Compliments of Weather Underground - 4 mb